Regional Weather

 

KMKL - Jackson, TN, USA
Distance from Parsons: WNW 50mi, 81km
Updated: Mon, 26-Jun-2017 6:53am CDT
Clear
Clear
 Wind from calm
Wind: Calm
Temperature: 64°F , 18°C
Dew Point: 61°F , 16°C
Humidity: 88%
Barometer: 30.20 inHg , 1022.7 hPa
Clouds: Clear
Visibility: 10 miles , 16 km
2017/06/26 11:53 KMKL 261153Z AUTO 00000KT 10SM CLR 18/16 A3020 RMK AO2 SLP223 T01780161 10178 20150 51012
KMEM - Memphis, TN, USA
Distance from Parsons: W 108mi, 173km
Updated: Mon, 26-Jun-2017 6:54am CDT
Mostly cloudy
Mostly cloudy
 Wind from NW
Wind: NW 3 mph , 6 km/h
Temperature: 70°F , 21°C
Dew Point: 64°F , 18°C
Humidity: 83%
Barometer: 30.21 inHg , 1023 hPa
Clouds: Mostly cloudy
Visibility: 10 miles , 16 km
Cloud details: Few Clouds 5000 ft
Partly cloudy 9000 ft
Mostly cloudy 12000 ft
2017/06/26 11:54 KMEM 261154Z 31003KT 10SM FEW050 SCT090 BKN120 21/18 A3021 RMK AO2 RAB20E31 SLP225 VCSH P0000 60000 T02060178 10206 20178 53013
 
KBNA - Nashville, TN, USA
Distance from Parsons: NE 97mi, 157km
Updated: Mon, 26-Jun-2017 6:53am CDT
Mostly cloudy
Mostly cloudy
 Wind from calm
Wind: Calm
Temperature: 66°F , 19°C
Dew Point: 57°F , 14°C
Humidity: 73%
Barometer: 30.20 inHg , 1022.7 hPa
Clouds: Mostly cloudy
Visibility: 10 miles , 16 km
Cloud details: Mostly cloudy 15000 ft
2017/06/26 11:53 KBNA 261153Z 00000KT 10SM BKN150 19/14 A3020 RMK AO2 SLP221 T01890144 10189 20161 51014
KCKV - Clarksville, TN, USA
Distance from Parsons: NNE 99mi, 159km
Updated: Mon, 26-Jun-2017 6:52am CDT
Clear
Clear
 Wind from NNW
Wind: NNW 3 mph , 6 km/h
Temperature: 63°F , 17°C
Dew Point: 57°F , 14°C
Humidity: 83%
Barometer: 30.21 inHg , 1023 hPa
Clouds: Clear
Visibility: 10 miles , 16 km
2017/06/26 11:52 KCKV 261152Z AUTO 34003KT 10SM CLR 17/14 A3021 RMK AO2 SLP225 T01720144 10183 20156 51015
 
KPAH - Paducah, KY, USA
Distance from Parsons: NNW 128mi, 205km
Updated: Mon, 26-Jun-2017 6:53am CDT
Mostly cloudy
Mostly cloudy
 Wind from calm
Wind: Calm
Temperature: 66°F , 19°C
Dew Point: 57°F , 14°C
Humidity: 73%
Barometer: 30.20 inHg , 1022.7 hPa
Clouds: Mostly cloudy
Visibility: 10 miles , 16 km
Cloud details: Mostly cloudy 8500 ft
2017/06/26 11:53 KPAH 261153Z 00000KT 10SM BKN085 19/14 A3020 RMK AO2 SLP224 T01940139 10206 20172 51011
KCHA - Chattanooga, TN, USA
Distance from Parsons: E 165mi, 265km
Updated: Mon, 26-Jun-2017 6:53am CDT
Partly cloudy
Partly cloudy
 Wind from calm
Wind: Calm
Temperature: 61°F , 16°C
Dew Point: 55°F , 13°C
Humidity: 83%
Barometer: 30.21 inHg , 1023 hPa
Clouds: Partly cloudy
Visibility: 10 miles , 16 km
Cloud details: Partly cloudy 5500 ft
Partly cloudy 15000 ft
2017/06/26 11:53 KCHA 261153Z 00000KT 10SM SCT055 SCT150 16/13 A3021 RMK AO2 SLP222 T01610133 10167 20133 53010 $
 
KTYS - Knoxville, TN, USA
Distance from Parsons: E 234mi, 377km
Updated: Mon, 26-Jun-2017 6:53am CDT
Mostly cloudy
Mostly cloudy
 Wind from calm
Wind: Calm
Temperature: 61°F , 16°C
Dew Point: 55°F , 13°C
Humidity: 83%
Barometer: 30.19 inHg , 1022.4 hPa
Clouds: Mostly cloudy
Visibility: 10 miles , 16 km
Cloud details: Few Clouds 1000 ft
Mostly cloudy 15000 ft
Mostly cloudy 25000 ft
2017/06/26 11:53 KTYS 261153Z 00000KT 10SM FEW010 BKN150 BKN250 16/13 A3019 RMK AO2 SLP216 T01560133 10167 20133 53008
KLIT - Little Rock, AR, USA
Distance from Parsons: W 240mi, 386km
Updated: Mon, 26-Jun-2017 6:53am CDT
Overcast
Overcast
 Wind from calm
Wind: Calm
Temperature: 70°F , 21°C
Dew Point: 64°F , 18°C
Humidity: 83%
Barometer: 30.19 inHg , 1022.4 hPa
Clouds: Overcast
Visibility: 10 miles , 16 km
Cloud details: Overcast 12000 ft
2017/06/26 11:53 KLIT 261153Z 00000KT 10SM OVC120 21/18 A3019 RMK AO2 SLP225 VIRGA NE 60000 T02060183 10211 20189 53001 $